sensor_id;sensor_type;location;lat;lon;timestamp;P1;P2;P0
44674;PMS5003;30388;52.038;-1.478;2022-10-15T00:01:29;5185;5185;
44674;PMS5003;30388;52.038;-1.478;2022-10-15T00:03:58;5207;5207;
44674;PMS5003;30388;52.038;-1.478;2022-10-15T00:06:25;5196;5196;
44674;PMS5003;30388;52.038;-1.478;2022-10-15T00:08:53;5196;5196;
44674;PMS5003;30388;52.038;-1.478;2022-10-15T00:11:22;5207;5207;
44674;PMS5003;30388;52.038;-1.478;2022-10-15T00:13:51;5207;5207;
44674;PMS5003;30388;52.038;-1.478;2022-10-15T00:16:21;5217;5217;
44674;PMS5003;30388;52.038;-1.478;2022-10-15T00:18:50;5261;5261;
44674;PMS5003;30388;52.038;-1.478;2022-10-15T00:21:20;5207;5207;
44674;PMS5003;30388;52.038;-1.478;2022-10-15T00:23:48;5207;5207;
44674;PMS5003;30388;52.038;-1.478;2022-10-15T00:26:16;5207;5207;
44674;PMS5003;30388;52.038;-1.478;2022-10-15T00:28:46;5217;5217;
44674;PMS5003;30388;52.038;-1.478;2022-10-15T00:31:17;5217;5217;
44674;PMS5003;30388;52.038;-1.478;2022-10-15T00:33:44;5217;5217;
44674;PMS5003;30388;52.038;-1.478;2022-10-15T00:36:14;5217;5217;
44674;PMS5003;30388;52.038;-1.478;2022-10-15T00:38:44;5228;5228;
44674;PMS5003;30388;52.038;-1.478;2022-10-15T00:41:13;5228;5228;
44674;PMS5003;30388;52.038;-1.478;2022-10-15T00:43:42;5207;5207;
44674;PMS5003;30388;52.038;-1.478;2022-10-15T00:46:15;5207;5207;
44674;PMS5003;30388;52.038;-1.478;2022-10-15T00:48:47;5207;5207;
44674;PMS5003;30388;52.038;-1.478;2022-10-15T00:51:16;5207;5207;
44674;PMS5003;30388;52.038;-1.478;2022-10-15T00:53:46;5185;5185;
44674;PMS5003;30388;52.038;-1.478;2022-10-15T00:56:16;5185;5185;
44674;PMS5003;30388;52.038;-1.478;2022-10-15T00:58:46;5196;5196;
44674;PMS5003;30388;52.038;-1.478;2022-10-15T01:01:14;5196;5196;
44674;PMS5003;30388;52.038;-1.478;2022-10-15T01:03:41;5207;5207;
44674;PMS5003;30388;52.038;-1.478;2022-10-15T01:06:09;5207;5207;
44674;PMS5003;30388;52.038;-1.478;2022-10-15T01:08:37;5207;5207;
44674;PMS5003;30388;52.038;-1.478;2022-10-15T01:11:08;5207;5207;
44674;PMS5003;30388;52.038;-1.478;2022-10-15T01:13:45;5196;5196;
44674;PMS5003;30388;52.038;-1.478;2022-10-15T01:16:22;5185;5185;
44674;PMS5003;30388;52.038;-1.478;2022-10-15T01:18:58;5174;5174;
44674;PMS5003;30388;52.038;-1.478;2022-10-15T01:21:30;5196;5196;
44674;PMS5003;30388;52.038;-1.478;2022-10-15T01:24:08;5196;5196;
44674;PMS5003;30388;52.038;-1.478;2022-10-15T01:27:00;5196;5196;
44674;PMS5003;30388;52.038;-1.478;2022-10-15T01:30:17;5207;5207;
44674;PMS5003;30388;52.038;-1.478;2022-10-15T01:32:47;5217;5217;
44674;PMS5003;30388;52.038;-1.478;2022-10-15T01:35:29;5207;5207;
44674;PMS5003;30388;52.038;-1.478;2022-10-15T01:38:05;5207;5207;
44674;PMS5003;30388;52.038;-1.478;2022-10-15T01:40:44;5217;5217;
44674;PMS5003;30388;52.038;-1.478;2022-10-15T01:43:16;5228;5228;
44674;PMS5003;30388;52.038;-1.478;2022-10-15T01:45:51;5228;5228;
44674;PMS5003;30388;52.038;-1.478;2022-10-15T01:48:22;5207;5207;
44674;PMS5003;30388;52.038;-1.478;2022-10-15T01:50:54;5207;5207;
44674;PMS5003;30388;52.038;-1.478;2022-10-15T01:53:26;5207;5207;
44674;PMS5003;30388;52.038;-1.478;2022-10-15T01:55:55;5217;5217;
44674;PMS5003;30388;52.038;-1.478;2022-10-15T01:58:25;5207;5207;
44674;PMS5003;30388;52.038;-1.478;2022-10-15T02:00:55;5239;5239;
44674;PMS5003;30388;52.038;-1.478;2022-10-15T02:03:24;5239;5239;
44674;PMS5003;30388;52.038;-1.478;2022-10-15T02:05:54;5217;5217;
44674;PMS5003;30388;52.038;-1.478;2022-10-15T02:08:27;5228;5228;
44674;PMS5003;30388;52.038;-1.478;2022-10-15T02:11:05;5261;5261;
44674;PMS5003;30388;52.038;-1.478;2022-10-15T02:13:40;5261;5261;
44674;PMS5003;30388;52.038;-1.478;2022-10-15T02:16:17;5261;5261;
44674;PMS5003;30388;52.038;-1.478;2022-10-15T02:18:50;5317;5317;
44674;PMS5003;30388;52.038;-1.478;2022-10-15T02:21:25;5261;5261;
44674;PMS5003;30388;52.038;-1.478;2022-10-15T02:24:00;5261;5261;
44674;PMS5003;30388;52.038;-1.478;2022-10-15T02:26:34;5250;5250;
44674;PMS5003;30388;52.038;-1.478;2022-10-15T02:29:04;5250;5250;
44674;PMS5003;30388;52.038;-1.478;2022-10-15T02:31:35;5239;5239;
44674;PMS5003;30388;52.038;-1.478;2022-10-15T02:34:07;5250;5250;
44674;PMS5003;30388;52.038;-1.478;2022-10-15T02:36:38;5239;5239;
44674;PMS5003;30388;52.038;-1.478;2022-10-15T02:39:06;5217;5217;
44674;PMS5003;30388;52.038;-1.478;2022-10-15T02:41:38;5217;5217;
44674;PMS5003;30388;52.038;-1.478;2022-10-15T02:44:05;5217;5217;
44674;PMS5003;30388;52.038;-1.478;2022-10-15T02:46:32;5207;5207;
44674;PMS5003;30388;52.038;-1.478;2022-10-15T02:49:00;5239;5239;
44674;PMS5003;30388;52.038;-1.478;2022-10-15T02:51:30;5250;5250;
44674;PMS5003;30388;52.038;-1.478;2022-10-15T02:53:58;5239;5239;
44674;PMS5003;30388;52.038;-1.478;2022-10-15T02:56:25;5239;5239;
44674;PMS5003;30388;52.038;-1.478;2022-10-15T02:58:52;5250;5250;
44674;PMS5003;30388;52.038;-1.478;2022-10-15T03:01:19;5250;5250;
44674;PMS5003;30388;52.038;-1.478;2022-10-15T03:03:47;5250;5250;
44674;PMS5003;30388;52.038;-1.478;2022-10-15T03:06:15;5250;5250;
44674;PMS5003;30388;52.038;-1.478;2022-10-15T03:08:42;5228;5228;
44674;PMS5003;30388;52.038;-1.478;2022-10-15T03:11:10;5250;5250;
44674;PMS5003;30388;52.038;-1.478;2022-10-15T03:13:37;5250;5250;
44674;PMS5003;30388;52.038;-1.478;2022-10-15T03:16:05;5239;5239;
44674;PMS5003;30388;52.038;-1.478;2022-10-15T03:18:33;5250;5250;
44674;PMS5003;30388;52.038;-1.478;2022-10-15T03:21:01;5228;5228;
44674;PMS5003;30388;52.038;-1.478;2022-10-15T03:23:29;5228;5228;
44674;PMS5003;30388;52.038;-1.478;2022-10-15T03:25:56;5228;5228;
44674;PMS5003;30388;52.038;-1.478;2022-10-15T03:28:23;5239;5239;
44674;PMS5003;30388;52.038;-1.478;2022-10-15T03:30:50;5207;5207;
44674;PMS5003;30388;52.038;-1.478;2022-10-15T03:33:17;5228;5228;
44674;PMS5003;30388;52.038;-1.478;2022-10-15T03:35:45;5217;5217;
44674;PMS5003;30388;52.038;-1.478;2022-10-15T03:38:12;5228;5228;
44674;PMS5003;30388;52.038;-1.478;2022-10-15T03:40:39;5228;5228;
44674;PMS5003;30388;52.038;-1.478;2022-10-15T03:43:06;5207;5207;
44674;PMS5003;30388;52.038;-1.478;2022-10-15T03:45:33;5207;5207;
44674;PMS5003;30388;52.038;-1.478;2022-10-15T03:48:00;5217;5217;
44674;PMS5003;30388;52.038;-1.478;2022-10-15T03:50:27;5207;5207;
44674;PMS5003;30388;52.038;-1.478;2022-10-15T03:52:54;5207;5207;
44674;PMS5003;30388;52.038;-1.478;2022-10-15T03:55:21;5207;5207;
44674;PMS5003;30388;52.038;-1.478;2022-10-15T03:57:48;5207;5207;
44674;PMS5003;30388;52.038;-1.478;2022-10-15T04:00:16;5122;5122;
44674;PMS5003;30388;52.038;-1.478;2022-10-15T04:02:43;5207;5207;
44674;PMS5003;30388;52.038;-1.478;2022-10-15T04:05:10;5207;5207;
44674;PMS5003;30388;52.038;-1.478;2022-10-15T04:07:38;5207;5207;
44674;PMS5003;30388;52.038;-1.478;2022-10-15T04:10:06;5207;5207;
44674;PMS5003;30388;52.038;-1.478;2022-10-15T04:12:33;5207;5207;
44674;PMS5003;30388;52.038;-1.478;2022-10-15T04:15:02;5207;5207;
44674;PMS5003;30388;52.038;-1.478;2022-10-15T04:17:29;5207;5207;
44674;PMS5003;30388;52.038;-1.478;2022-10-15T04:19:57;5207;5207;
44674;PMS5003;30388;52.038;-1.478;2022-10-15T04:22:24;5101;5101;
44674;PMS5003;30388;52.038;-1.478;2022-10-15T04:24:51;5207;5207;
44674;PMS5003;30388;52.038;-1.478;2022-10-15T04:27:18;5196;5196;
44674;PMS5003;30388;52.038;-1.478;2022-10-15T04:29:46;5207;5207;
44674;PMS5003;30388;52.038;-1.478;2022-10-15T04:32:13;5185;5185;
44674;PMS5003;30388;52.038;-1.478;2022-10-15T04:34:40;5196;5196;
44674;PMS5003;30388;52.038;-1.478;2022-10-15T04:37:07;5207;5207;
44674;PMS5003;30388;52.038;-1.478;2022-10-15T04:39:35;5207;5207;
44674;PMS5003;30388;52.038;-1.478;2022-10-15T04:42:02;5207;5207;
44674;PMS5003;30388;52.038;-1.478;2022-10-15T04:44:29;5207;5207;
44674;PMS5003;30388;52.038;-1.478;2022-10-15T04:46:58;5207;5207;
44674;PMS5003;30388;52.038;-1.478;2022-10-15T04:49:25;5207;5207;
44674;PMS5003;30388;52.038;-1.478;2022-10-15T04:51:53;5207;5207;
44674;PMS5003;30388;52.038;-1.478;2022-10-15T04:54:20;5207;5207;
44674;PMS5003;30388;52.038;-1.478;2022-10-15T04:56:47;5217;5217;
44674;PMS5003;30388;52.038;-1.478;2022-10-15T04:59:14;5228;5228;
44674;PMS5003;30388;52.038;-1.478;2022-10-15T05:01:42;5228;5228;
44674;PMS5003;30388;52.038;-1.478;2022-10-15T05:04:09;5239;5239;
44674;PMS5003;30388;52.038;-1.478;2022-10-15T05:06:37;5207;5207;
44674;PMS5003;30388;52.038;-1.478;2022-10-15T05:09:04;5207;5207;
44674;PMS5003;30388;52.038;-1.478;2022-10-15T05:11:33;5207;5207;
44674;PMS5003;30388;52.038;-1.478;2022-10-15T05:14:02;5217;5217;
44674;PMS5003;30388;52.038;-1.478;2022-10-15T05:16:30;5228;5228;
44674;PMS5003;30388;52.038;-1.478;2022-10-15T05:19:00;5217;5217;
44674;PMS5003;30388;52.038;-1.478;2022-10-15T05:21:30;5207;5207;
44674;PMS5003;30388;52.038;-1.478;2022-10-15T05:23:58;5207;5207;
44674;PMS5003;30388;52.038;-1.478;2022-10-15T05:26:27;5207;5207;
44674;PMS5003;30388;52.038;-1.478;2022-10-15T05:29:00;5185;5185;
44674;PMS5003;30388;52.038;-1.478;2022-10-15T05:31:29;5185;5185;
44674;PMS5003;30388;52.038;-1.478;2022-10-15T05:33:58;5174;5174;
44674;PMS5003;30388;52.038;-1.478;2022-10-15T05:36:31;5174;5174;
44674;PMS5003;30388;52.038;-1.478;2022-10-15T05:38:59;5174;5174;
44674;PMS5003;30388;52.038;-1.478;2022-10-15T05:41:28;5185;5185;
44674;PMS5003;30388;52.038;-1.478;2022-10-15T05:43:56;5196;5196;
44674;PMS5003;30388;52.038;-1.478;2022-10-15T05:46:24;5196;5196;
44674;PMS5003;30388;52.038;-1.478;2022-10-15T05:48:53;5207;5207;
44674;PMS5003;30388;52.038;-1.478;2022-10-15T05:51:22;5207;5207;
44674;PMS5003;30388;52.038;-1.478;2022-10-15T05:53:50;5217;5217;
44674;PMS5003;30388;52.038;-1.478;2022-10-15T05:56:18;5217;5217;
44674;PMS5003;30388;52.038;-1.478;2022-10-15T05:58:46;5239;5239;
44674;PMS5003;30388;52.038;-1.478;2022-10-15T06:01:14;5164;5164;
44674;PMS5003;30388;52.038;-1.478;2022-10-15T06:03:42;5250;5250;
44674;PMS5003;30388;52.038;-1.478;2022-10-15T06:06:12;5250;5250;
44674;PMS5003;30388;52.038;-1.478;2022-10-15T06:08:41;5250;5250;
44674;PMS5003;30388;52.038;-1.478;2022-10-15T06:11:09;5250;5250;
44674;PMS5003;30388;52.038;-1.478;2022-10-15T06:13:37;5250;5250;
44674;PMS5003;30388;52.038;-1.478;2022-10-15T06:16:05;5261;5261;
44674;PMS5003;30388;52.038;-1.478;2022-10-15T06:18:33;5272;5272;
44674;PMS5003;30388;52.038;-1.478;2022-10-15T06:21:01;5283;5283;
44674;PMS5003;30388;52.038;-1.478;2022-10-15T06:23:28;5272;5272;
44674;PMS5003;30388;52.038;-1.478;2022-10-15T06:25:55;5283;5283;
44674;PMS5003;30388;52.038;-1.478;2022-10-15T06:28:26;5272;5272;
44674;PMS5003;30388;52.038;-1.478;2022-10-15T06:30:56;5283;5283;
44674;PMS5003;30388;52.038;-1.478;2022-10-15T06:33:24;5272;5272;
44674;PMS5003;30388;52.038;-1.478;2022-10-15T06:35:52;5283;5283;
44674;PMS5003;30388;52.038;-1.478;2022-10-15T06:38:20;5283;5283;
44674;PMS5003;30388;52.038;-1.478;2022-10-15T06:40:47;5283;5283;
44674;PMS5003;30388;52.038;-1.478;2022-10-15T06:43:14;5294;5294;
44674;PMS5003;30388;52.038;-1.478;2022-10-15T06:45:41;5294;5294;
44674;PMS5003;30388;52.038;-1.478;2022-10-15T06:48:10;5294;5294;
44674;PMS5003;30388;52.038;-1.478;2022-10-15T06:50:37;5294;5294;
44674;PMS5003;30388;52.038;-1.478;2022-10-15T06:53:06;5283;5283;
44674;PMS5003;30388;52.038;-1.478;2022-10-15T06:55:34;5294;5294;
44674;PMS5003;30388;52.038;-1.478;2022-10-15T06:58:02;5283;5283;
44674;PMS5003;30388;52.038;-1.478;2022-10-15T07:00:29;5294;5294;
44674;PMS5003;30388;52.038;-1.478;2022-10-15T07:03:01;5294;5294;
44674;PMS5003;30388;52.038;-1.478;2022-10-15T07:05:29;5294;5294;
44674;PMS5003;30388;52.038;-1.478;2022-10-15T07:07:57;5294;5294;
44674;PMS5003;30388;52.038;-1.478;2022-10-15T07:10:26;5294;5294;
44674;PMS5003;30388;52.038;-1.478;2022-10-15T07:12:53;5283;5283;
44674;PMS5003;30388;52.038;-1.478;2022-10-15T07:15:26;5294;5294;
44674;PMS5003;30388;52.038;-1.478;2022-10-15T07:17:54;5283;5283;
44674;PMS5003;30388;52.038;-1.478;2022-10-15T07:20:22;5294;5294;
44674;PMS5003;30388;52.038;-1.478;2022-10-15T07:22:50;5294;5294;
44674;PMS5003;30388;52.038;-1.478;2022-10-15T07:25:22;5294;5294;
44674;PMS5003;30388;52.038;-1.478;2022-10-15T07:27:49;5283;5283;
44674;PMS5003;30388;52.038;-1.478;2022-10-15T07:30:16;5261;5261;
44674;PMS5003;30388;52.038;-1.478;2022-10-15T07:32:43;5250;5250;
44674;PMS5003;30388;52.038;-1.478;2022-10-15T07:35:10;5250;5250;
44674;PMS5003;30388;52.038;-1.478;2022-10-15T07:37:38;5239;5239;
44674;PMS5003;30388;52.038;-1.478;2022-10-15T07:40:06;5217;5217;
44674;PMS5003;30388;52.038;-1.478;2022-10-15T07:42:33;5228;5228;
44674;PMS5003;30388;52.038;-1.478;2022-10-15T07:45:01;5228;5228;
44674;PMS5003;30388;52.038;-1.478;2022-10-15T07:47:29;5228;5228;
44674;PMS5003;30388;52.038;-1.478;2022-10-15T07:49:56;5217;5217;
44674;PMS5003;30388;52.038;-1.478;2022-10-15T07:52:24;5228;5228;
44674;PMS5003;30388;52.038;-1.478;2022-10-15T07:54:51;5228;5228;
44674;PMS5003;30388;52.038;-1.478;2022-10-15T07:57:18;5239;5239;
44674;PMS5003;30388;52.038;-1.478;2022-10-15T07:59:46;5239;5239;
44674;PMS5003;30388;52.038;-1.478;2022-10-15T08:02:14;5228;5228;
44674;PMS5003;30388;52.038;-1.478;2022-10-15T08:04:42;5239;5239;
44674;PMS5003;30388;52.038;-1.478;2022-10-15T08:07:10;5239;5239;
44674;PMS5003;30388;52.038;-1.478;2022-10-15T08:09:37;5250;5250;
44674;PMS5003;30388;52.038;-1.478;2022-10-15T08:12:04;5250;5250;
44674;PMS5003;30388;52.038;-1.478;2022-10-15T08:14:32;5250;5250;
44674;PMS5003;30388;52.038;-1.478;2022-10-15T08:17:00;5250;5250;
44674;PMS5003;30388;52.038;-1.478;2022-10-15T08:19:27;5250;5250;
44674;PMS5003;30388;52.038;-1.478;2022-10-15T08:21:54;5228;5228;
44674;PMS5003;30388;52.038;-1.478;2022-10-15T08:24:22;5207;5207;
44674;PMS5003;30388;52.038;-1.478;2022-10-15T08:26:50;5239;5239;
44674;PMS5003;30388;52.038;-1.478;2022-10-15T08:29:17;5250;5250;
44674;PMS5003;30388;52.038;-1.478;2022-10-15T08:31:44;5239;5239;
44674;PMS5003;30388;52.038;-1.478;2022-10-15T08:34:12;5228;5228;
44674;PMS5003;30388;52.038;-1.478;2022-10-15T08:36:39;5217;5217;
44674;PMS5003;30388;52.038;-1.478;2022-10-15T08:39:07;5207;5207;
44674;PMS5003;30388;52.038;-1.478;2022-10-15T08:41:34;5217;5217;
44674;PMS5003;30388;52.038;-1.478;2022-10-15T08:44:05;5217;5217;
44674;PMS5003;30388;52.038;-1.478;2022-10-15T08:46:41;5207;5207;
44674;PMS5003;30388;52.038;-1.478;2022-10-15T08:49:13;5217;5217;
44674;PMS5003;30388;52.038;-1.478;2022-10-15T08:51:50;5217;5217;
44674;PMS5003;30388;52.038;-1.478;2022-10-15T08:54:23;5228;5228;
44674;PMS5003;30388;52.038;-1.478;2022-10-15T08:57:05;5217;5217;
44674;PMS5003;30388;52.038;-1.478;2022-10-15T08:59:44;5207;5207;
44674;PMS5003;30388;52.038;-1.478;2022-10-15T09:02:20;5196;5196;
44674;PMS5003;30388;52.038;-1.478;2022-10-15T09:04:54;5174;5174;
44674;PMS5003;30388;52.038;-1.478;2022-10-15T09:07:30;5143;5143;
44674;PMS5003;30388;52.038;-1.478;2022-10-15T09:10:05;5132;5132;
44674;PMS5003;30388;52.038;-1.478;2022-10-15T09:12:45;5111;5111;
44674;PMS5003;30388;52.038;-1.478;2022-10-15T09:15:24;5111;5111;
44674;PMS5003;30388;52.038;-1.478;2022-10-15T09:17:59;5111;5111;
44674;PMS5003;30388;52.038;-1.478;2022-10-15T09:20:29;5091;5091;
44674;PMS5003;30388;52.038;-1.478;2022-10-15T09:23:00;5070;5070;
44674;PMS5003;30388;52.038;-1.478;2022-10-15T09:25:30;5050;5050;
44674;PMS5003;30388;52.038;-1.478;2022-10-15T09:28:06;5040;5040;
44674;PMS5003;30388;52.038;-1.478;2022-10-15T09:30:43;5030;5030;
44674;PMS5003;30388;52.038;-1.478;2022-10-15T09:33:15;5019;5019;
44674;PMS5003;30388;52.038;-1.478;2022-10-15T09:35:52;5030;5030;
44674;PMS5003;30388;52.038;-1.478;2022-10-15T09:38:28;5030;5030;
44674;PMS5003;30388;52.038;-1.478;2022-10-15T09:41:15;5009;5009;
44674;PMS5003;30388;52.038;-1.478;2022-10-15T09:43:51;5000;5000;
44674;PMS5003;30388;52.038;-1.478;2022-10-15T09:46:23;4990;4990;
44674;PMS5003;30388;52.038;-1.478;2022-10-15T09:48:51;5009;5009;
44674;PMS5003;30388;52.038;-1.478;2022-10-15T09:51:29;5000;5000;
44674;PMS5003;30388;52.038;-1.478;2022-10-15T09:54:02;5009;5009;
44674;PMS5003;30388;52.038;-1.478;2022-10-15T09:56:37;4960;4960;
44674;PMS5003;30388;52.038;-1.478;2022-10-15T09:59:15;5000;5000;
44674;PMS5003;30388;52.038;-1.478;2022-10-15T10:01:55;5000;5000;
44674;PMS5003;30388;52.038;-1.478;2022-10-15T10:04:25;5000;5000;
44674;PMS5003;30388;52.038;-1.478;2022-10-15T10:06:54;5000;5000;
44674;PMS5003;30388;52.038;-1.478;2022-10-15T10:09:24;5000;5000;
44674;PMS5003;30388;52.038;-1.478;2022-10-15T10:11:57;5000;5000;
44674;PMS5003;30388;52.038;-1.478;2022-10-15T10:14:27;4990;4990;
44674;PMS5003;30388;52.038;-1.478;2022-10-15T10:17:14;5000;5000;
44674;PMS5003;30388;52.038;-1.478;2022-10-15T10:19:43;5000;5000;
44674;PMS5003;30388;52.038;-1.478;2022-10-15T10:22:13;4990;4990;
44674;PMS5003;30388;52.038;-1.478;2022-10-15T10:24:43;5000;5000;
44674;PMS5003;30388;52.038;-1.478;2022-10-15T10:27:20;4990;4990;
44674;PMS5003;30388;52.038;-1.478;2022-10-15T10:29:51;4990;4990;
44674;PMS5003;30388;52.038;-1.478;2022-10-15T10:32:26;5000;5000;
44674;PMS5003;30388;52.038;-1.478;2022-10-15T10:34:55;5000;5000;
44674;PMS5003;30388;52.038;-1.478;2022-10-15T10:37:24;5000;5000;
44674;PMS5003;30388;52.038;-1.478;2022-10-15T10:39:53;4941;4941;
44674;PMS5003;30388;52.038;-1.478;2022-10-15T10:42:24;4990;4990;
44674;PMS5003;30388;52.038;-1.478;2022-10-15T10:45:05;4980;4980;
44674;PMS5003;30388;52.038;-1.478;2022-10-15T10:47:40;5009;5009;
44674;PMS5003;30388;52.038;-1.478;2022-10-15T10:50:10;5000;5000;
44674;PMS5003;30388;52.038;-1.478;2022-10-15T10:52:54;5000;5000;
44674;PMS5003;30388;52.038;-1.478;2022-10-15T10:55:22;5000;5000;
44674;PMS5003;30388;52.038;-1.478;2022-10-15T10:57:56;5000;5000;
44674;PMS5003;30388;52.038;-1.478;2022-10-15T11:00:24;5000;5000;
44674;PMS5003;30388;52.038;-1.478;2022-10-15T11:03:00;5000;5000;
44674;PMS5003;30388;52.038;-1.478;2022-10-15T11:05:28;5000;5000;
44674;PMS5003;30388;52.038;-1.478;2022-10-15T11:08:01;5000;5000;
44674;PMS5003;30388;52.038;-1.478;2022-10-15T11:10:40;4990;4990;
44674;PMS5003;30388;52.038;-1.478;2022-10-15T11:13:20;5000;5000;
44674;PMS5003;30388;52.038;-1.478;2022-10-15T11:15:59;5019;5019;
44674;PMS5003;30388;52.038;-1.478;2022-10-15T11:18:38;5019;5019;
44674;PMS5003;30388;52.038;-1.478;2022-10-15T11:21:20;5040;5040;
44674;PMS5003;30388;52.038;-1.478;2022-10-15T11:23:59;5050;5050;
44674;PMS5003;30388;52.038;-1.478;2022-10-15T11:26:39;5070;5070;
44674;PMS5003;30388;52.038;-1.478;2022-10-15T11:29:20;5060;5060;
44674;PMS5003;30388;52.038;-1.478;2022-10-15T11:31:57;5050;5050;
44674;PMS5003;30388;52.038;-1.478;2022-10-15T11:34:36;5050;5050;
44674;PMS5003;30388;52.038;-1.478;2022-10-15T11:37:20;5030;5030;
44674;PMS5003;30388;52.038;-1.478;2022-10-15T11:40:03;5040;5040;
44674;PMS5003;30388;52.038;-1.478;2022-10-15T11:42:40;5030;5030;
44674;PMS5003;30388;52.038;-1.478;2022-10-15T11:45:54;5060;5060;
44674;PMS5003;30388;52.038;-1.478;2022-10-15T11:48:35;5000;5000;
44674;PMS5003;30388;52.038;-1.478;2022-10-15T11:51:17;5000;5000;
44674;PMS5003;30388;52.038;-1.478;2022-10-15T11:53:54;4990;4990;
44674;PMS5003;30388;52.038;-1.478;2022-10-15T11:56:44;5000;5000;
44674;PMS5003;30388;52.038;-1.478;2022-10-15T11:59:17;4990;4990;
44674;PMS5003;30388;52.038;-1.478;2022-10-15T12:01:54;5000;5000;
44674;PMS5003;30388;52.038;-1.478;2022-10-15T12:04:28;5000;5000;
44674;PMS5003;30388;52.038;-1.478;2022-10-15T12:07:02;5000;5000;
44674;PMS5003;30388;52.038;-1.478;2022-10-15T12:09:35;5000;5000;
44674;PMS5003;30388;52.038;-1.478;2022-10-15T12:12:06;5000;5000;
44674;PMS5003;30388;52.038;-1.478;2022-10-15T12:14:44;5000;5000;
44674;PMS5003;30388;52.038;-1.478;2022-10-15T12:17:19;5009;5009;
44674;PMS5003;30388;52.038;-1.478;2022-10-15T12:19:53;4990;4990;
44674;PMS5003;30388;52.038;-1.478;2022-10-15T12:22:33;5000;5000;
44674;PMS5003;30388;52.038;-1.478;2022-10-15T12:25:04;5000;5000;
44674;PMS5003;30388;52.038;-1.478;2022-10-15T12:28:09;5000;5000;
44674;PMS5003;30388;52.038;-1.478;2022-10-15T12:30:41;5000;5000;
44674;PMS5003;30388;52.038;-1.478;2022-10-15T12:33:22;5000;5000;
44674;PMS5003;30388;52.038;-1.478;2022-10-15T12:35:55;4980;4980;
44674;PMS5003;30388;52.038;-1.478;2022-10-15T12:38:26;5000;5000;
44674;PMS5003;30388;52.038;-1.478;2022-10-15T12:40:58;5000;5000;
44674;PMS5003;30388;52.038;-1.478;2022-10-15T12:43:28;5000;5000;
44674;PMS5003;30388;52.038;-1.478;2022-10-15T12:45:58;4990;4990;
44674;PMS5003;30388;52.038;-1.478;2022-10-15T12:48:28;5000;5000;
44674;PMS5003;30388;52.038;-1.478;2022-10-15T12:51:31;4990;4990;
44674;PMS5003;30388;52.038;-1.478;2022-10-15T12:53:58;5000;5000;
44674;PMS5003;30388;52.038;-1.478;2022-10-15T12:56:34;5000;5000;
44674;PMS5003;30388;52.038;-1.478;2022-10-15T12:59:04;5000;5000;
44674;PMS5003;30388;52.038;-1.478;2022-10-15T13:01:55;5000;5000;
44674;PMS5003;30388;52.038;-1.478;2022-10-15T13:04:22;5000;5000;
44674;PMS5003;30388;52.038;-1.478;2022-10-15T13:07:02;5000;5000;
44674;PMS5003;30388;52.038;-1.478;2022-10-15T13:09:29;5000;5000;
44674;PMS5003;30388;52.038;-1.478;2022-10-15T13:11:58;5000;5000;
44674;PMS5003;30388;52.038;-1.478;2022-10-15T13:14:27;5111;5111;
44674;PMS5003;30388;52.038;-1.478;2022-10-15T13:16:58;5000;5000;
44674;PMS5003;30388;52.038;-1.478;2022-10-15T13:19:29;5000;5000;
44674;PMS5003;30388;52.038;-1.478;2022-10-15T13:22:02;5000;5000;
44674;PMS5003;30388;52.038;-1.478;2022-10-15T13:24:38;5000;5000;
44674;PMS5003;30388;52.038;-1.478;2022-10-15T13:27:13;5000;5000;
44674;PMS5003;30388;52.038;-1.478;2022-10-15T13:29:52;5000;5000;
44674;PMS5003;30388;52.038;-1.478;2022-10-15T13:32:20;4990;4990;
44674;PMS5003;30388;52.038;-1.478;2022-10-15T13:34:49;5000;5000;
44674;PMS5003;30388;52.038;-1.478;2022-10-15T13:37:18;5000;5000;
44674;PMS5003;30388;52.038;-1.478;2022-10-15T13:39:49;5000;5000;
44674;PMS5003;30388;52.038;-1.478;2022-10-15T13:42:19;5000;5000;
44674;PMS5003;30388;52.038;-1.478;2022-10-15T13:44:56;5101;5101;
44674;PMS5003;30388;52.038;-1.478;2022-10-15T13:47:25;5000;5000;
44674;PMS5003;30388;52.038;-1.478;2022-10-15T13:50:31;5009;5009;
44674;PMS5003;30388;52.038;-1.478;2022-10-15T13:53:00;4921;4921;
44674;PMS5003;30388;52.038;-1.478;2022-10-15T13:55:37;5000;5000;
44674;PMS5003;30388;52.038;-1.478;2022-10-15T13:58:14;5000;5000;
44674;PMS5003;30388;52.038;-1.478;2022-10-15T14:00:48;5000;5000;
44674;PMS5003;30388;52.038;-1.478;2022-10-15T14:03:19;5030;5030;
44674;PMS5003;30388;52.038;-1.478;2022-10-15T14:05:48;5000;5000;
44674;PMS5003;30388;52.038;-1.478;2022-10-15T14:08:19;5019;5019;
44674;PMS5003;30388;52.038;-1.478;2022-10-15T14:10:50;5030;5030;
44674;PMS5003;30388;52.038;-1.478;2022-10-15T14:13:18;5030;5030;
44674;PMS5003;30388;52.038;-1.478;2022-10-15T14:15:46;5030;5030;
44674;PMS5003;30388;52.038;-1.478;2022-10-15T14:18:25;5019;5019;
44674;PMS5003;30388;52.038;-1.478;2022-10-15T14:20:57;5009;5009;
44674;PMS5003;30388;52.038;-1.478;2022-10-15T14:23:25;5009;5009;
44674;PMS5003;30388;52.038;-1.478;2022-10-15T14:25:54;5030;5030;
44674;PMS5003;30388;52.038;-1.478;2022-10-15T14:28:23;5030;5030;
44674;PMS5003;30388;52.038;-1.478;2022-10-15T14:30:53;5019;5019;
44674;PMS5003;30388;52.038;-1.478;2022-10-15T14:33:29;5009;5009;
44674;PMS5003;30388;52.038;-1.478;2022-10-15T14:36:07;5000;5000;
44674;PMS5003;30388;52.038;-1.478;2022-10-15T14:38:38;5000;5000;
44674;PMS5003;30388;52.038;-1.478;2022-10-15T14:41:20;5000;5000;
44674;PMS5003;30388;52.038;-1.478;2022-10-15T14:44:15;5000;5000;
44674;PMS5003;30388;52.038;-1.478;2022-10-15T14:46:45;5000;5000;
44674;PMS5003;30388;52.038;-1.478;2022-10-15T14:49:21;5000;5000;
44674;PMS5003;30388;52.038;-1.478;2022-10-15T14:51:52;5000;5000;
44674;PMS5003;30388;52.038;-1.478;2022-10-15T14:54:23;5000;5000;
44674;PMS5003;30388;52.038;-1.478;2022-10-15T14:56:53;5000;5000;
44674;PMS5003;30388;52.038;-1.478;2022-10-15T14:59:21;5009;5009;
44674;PMS5003;30388;52.038;-1.478;2022-10-15T15:01:55;5009;5009;
44674;PMS5003;30388;52.038;-1.478;2022-10-15T15:04:36;5019;5019;
44674;PMS5003;30388;52.038;-1.478;2022-10-15T15:07:09;5019;5019;
44674;PMS5003;30388;52.038;-1.478;2022-10-15T15:09:40;5030;5030;
44674;PMS5003;30388;52.038;-1.478;2022-10-15T15:12:13;5040;5040;
44674;PMS5003;30388;52.038;-1.478;2022-10-15T15:14:44;5040;5040;
44674;PMS5003;30388;52.038;-1.478;2022-10-15T15:17:13;5040;5040;
44674;PMS5003;30388;52.038;-1.478;2022-10-15T15:19:43;5040;5040;
44674;PMS5003;30388;52.038;-1.478;2022-10-15T15:22:12;5050;5050;
44674;PMS5003;30388;52.038;-1.478;2022-10-15T15:24:41;5060;5060;
44674;PMS5003;30388;52.038;-1.478;2022-10-15T15:27:17;5050;5050;
44674;PMS5003;30388;52.038;-1.478;2022-10-15T15:29:49;4990;4990;